sensor_id;sensor_type;location;lat;lon;timestamp;pressure;altitude;pressure_sealevel;temperature;humidity
78407;BME280;67692;51.074;-1.790;2023-05-07T00:00:50;100869.94;;;12.90;84.93
78407;BME280;67692;51.074;-1.790;2023-05-07T00:03:17;100872.75;;;12.87;84.90
78407;BME280;67692;51.074;-1.790;2023-05-07T00:05:44;100871.72;;;12.89;84.60
78407;BME280;67692;51.074;-1.790;2023-05-07T00:08:11;100871.84;;;12.88;84.72
78407;BME280;67692;51.074;-1.790;2023-05-07T00:10:38;100880.78;;;12.84;84.56
78407;BME280;67692;51.074;-1.790;2023-05-07T00:13:04;100882.69;;;12.81;84.42
78407;BME280;67692;51.074;-1.790;2023-05-07T00:15:31;100879.38;;;12.79;84.42
78407;BME280;67692;51.074;-1.790;2023-05-07T00:17:59;100873.78;;;12.73;84.70
78407;BME280;67692;51.074;-1.790;2023-05-07T00:20:26;100876.31;;;12.74;84.64
78407;BME280;67692;51.074;-1.790;2023-05-07T00:22:52;100872.50;;;12.67;85.17
78407;BME280;67692;51.074;-1.790;2023-05-07T00:25:19;100879.47;;;12.67;85.05
78407;BME280;67692;51.074;-1.790;2023-05-07T00:27:45;100874.13;;;12.68;85.18
78407;BME280;67692;51.074;-1.790;2023-05-07T00:30:12;100876.75;;;12.68;84.76
78407;BME280;67692;51.074;-1.790;2023-05-07T00:32:39;100876.94;;;12.54;84.80
78407;BME280;67692;51.074;-1.790;2023-05-07T00:35:08;100880.13;;;12.46;85.38
78407;BME280;67692;51.074;-1.790;2023-05-07T00:37:35;100877.13;;;12.40;85.30
78407;BME280;67692;51.074;-1.790;2023-05-07T00:40:03;100879.16;;;12.47;85.50
78407;BME280;67692;51.074;-1.790;2023-05-07T00:42:32;100881.66;;;12.49;85.27
78407;BME280;67692;51.074;-1.790;2023-05-07T00:44:59;100886.13;;;12.47;85.18
78407;BME280;67692;51.074;-1.790;2023-05-07T00:47:25;100874.94;;;12.46;85.10
78407;BME280;67692;51.074;-1.790;2023-05-07T00:49:52;100880.94;;;12.47;84.86
78407;BME280;67692;51.074;-1.790;2023-05-07T00:52:21;100889.44;;;12.49;85.25
78407;BME280;67692;51.074;-1.790;2023-05-07T00:54:50;100883.31;;;12.50;85.19
78407;BME280;67692;51.074;-1.790;2023-05-07T00:57:16;100874.34;;;12.54;84.88
78407;BME280;67692;51.074;-1.790;2023-05-07T00:59:43;100870.31;;;12.50;84.98
78407;BME280;67692;51.074;-1.790;2023-05-07T01:02:10;100877.06;;;12.52;84.51
78407;BME280;67692;51.074;-1.790;2023-05-07T01:04:36;100878.59;;;12.55;84.37
78407;BME280;67692;51.074;-1.790;2023-05-07T01:07:03;100878.13;;;12.50;84.43
78407;BME280;67692;51.074;-1.790;2023-05-07T01:09:32;100875.75;;;12.47;84.44
78407;BME280;67692;51.074;-1.790;2023-05-07T01:12:00;100881.25;;;12.42;84.28
78407;BME280;67692;51.074;-1.790;2023-05-07T01:14:27;100880.22;;;12.45;84.11
78407;BME280;67692;51.074;-1.790;2023-05-07T01:16:54;100886.09;;;12.36;84.06
78407;BME280;67692;51.074;-1.790;2023-05-07T01:19:21;100890.47;;;12.35;84.45
78407;BME280;67692;51.074;-1.790;2023-05-07T01:21:48;100880.50;;;12.29;84.05
78407;BME280;67692;51.074;-1.790;2023-05-07T01:24:17;100872.13;;;12.26;84.14
78407;BME280;67692;51.074;-1.790;2023-05-07T01:26:44;100880.84;;;12.25;84.06
78407;BME280;67692;51.074;-1.790;2023-05-07T01:29:11;100884.28;;;12.25;84.30
78407;BME280;67692;51.074;-1.790;2023-05-07T01:31:38;100879.31;;;12.22;84.22
78407;BME280;67692;51.074;-1.790;2023-05-07T01:34:07;100880.25;;;12.21;84.51
78407;BME280;67692;51.074;-1.790;2023-05-07T01:36:37;100893.47;;;12.18;84.21
78407;BME280;67692;51.074;-1.790;2023-05-07T01:39:05;100884.50;;;12.22;84.62
78407;BME280;67692;51.074;-1.790;2023-05-07T01:41:33;100888.56;;;12.13;84.84
78407;BME280;67692;51.074;-1.790;2023-05-07T01:44:01;100883.66;;;12.21;84.57
78407;BME280;67692;51.074;-1.790;2023-05-07T01:46:29;100889.16;;;12.30;84.52
78407;BME280;67692;51.074;-1.790;2023-05-07T01:48:57;100888.91;;;12.33;84.46
78407;BME280;67692;51.074;-1.790;2023-05-07T01:51:23;100886.63;;;12.28;84.46
78407;BME280;67692;51.074;-1.790;2023-05-07T01:53:52;100886.56;;;12.30;84.10
78407;BME280;67692;51.074;-1.790;2023-05-07T01:56:19;100885.91;;;12.26;84.16
78407;BME280;67692;51.074;-1.790;2023-05-07T01:58:47;100894.53;;;12.27;84.98
78407;BME280;67692;51.074;-1.790;2023-05-07T02:01:14;100893.81;;;12.25;85.14
78407;BME280;67692;51.074;-1.790;2023-05-07T02:03:40;100897.84;;;12.29;84.65
78407;BME280;67692;51.074;-1.790;2023-05-07T02:06:07;100895.25;;;12.29;84.74
78407;BME280;67692;51.074;-1.790;2023-05-07T02:08:34;100897.75;;;12.30;85.05
78407;BME280;67692;51.074;-1.790;2023-05-07T02:11:00;100897.25;;;12.25;85.16
78407;BME280;67692;51.074;-1.790;2023-05-07T02:13:28;100895.06;;;12.32;85.28
78407;BME280;67692;51.074;-1.790;2023-05-07T02:15:57;100906.97;;;12.34;84.93
78407;BME280;67692;51.074;-1.790;2023-05-07T02:18:23;100909.69;;;12.33;84.57
78407;BME280;67692;51.074;-1.790;2023-05-07T02:20:50;100912.28;;;12.33;84.73
78407;BME280;67692;51.074;-1.790;2023-05-07T02:23:16;100914.88;;;12.33;84.73
78407;BME280;67692;51.074;-1.790;2023-05-07T02:25:43;100921.63;;;12.35;84.47
78407;BME280;67692;51.074;-1.790;2023-05-07T02:28:10;100919.84;;;12.36;84.72
78407;BME280;67692;51.074;-1.790;2023-05-07T02:30:37;100925.38;;;12.31;84.28
78407;BME280;67692;51.074;-1.790;2023-05-07T02:33:05;100926.00;;;12.35;84.21
78407;BME280;67692;51.074;-1.790;2023-05-07T02:35:33;100927.63;;;12.36;83.52
78407;BME280;67692;51.074;-1.790;2023-05-07T02:38:00;100923.50;;;12.33;83.64
78407;BME280;67692;51.074;-1.790;2023-05-07T02:40:26;100939.19;;;12.32;83.46
78407;BME280;67692;51.074;-1.790;2023-05-07T02:42:53;100937.44;;;12.32;83.25
78407;BME280;67692;51.074;-1.790;2023-05-07T02:45:20;100937.03;;;12.26;82.92
78407;BME280;67692;51.074;-1.790;2023-05-07T02:47:46;100943.88;;;12.27;82.92
78407;BME280;67692;51.074;-1.790;2023-05-07T02:50:15;100945.97;;;12.21;83.16
78407;BME280;67692;51.074;-1.790;2023-05-07T02:52:41;100953.88;;;12.20;83.83
78407;BME280;67692;51.074;-1.790;2023-05-07T02:55:08;100953.06;;;12.19;82.70
78407;BME280;67692;51.074;-1.790;2023-05-07T02:57:35;100949.53;;;12.20;83.44
78407;BME280;67692;51.074;-1.790;2023-05-07T03:00:10;100958.25;;;12.19;83.11
78407;BME280;67692;51.074;-1.790;2023-05-07T03:02:37;100954.22;;;12.15;83.57
78407;BME280;67692;51.074;-1.790;2023-05-07T03:05:04;100957.31;;;12.20;83.55
78407;BME280;67692;51.074;-1.790;2023-05-07T03:07:32;100961.78;;;12.18;83.61
78407;BME280;67692;51.074;-1.790;2023-05-07T03:09:58;100959.78;;;12.22;83.90
78407;BME280;67692;51.074;-1.790;2023-05-07T03:12:25;100954.25;;;12.27;83.94
78407;BME280;67692;51.074;-1.790;2023-05-07T03:14:52;100963.94;;;12.25;83.71
78407;BME280;67692;51.074;-1.790;2023-05-07T03:17:20;100963.69;;;12.28;83.44
78407;BME280;67692;51.074;-1.790;2023-05-07T03:19:46;100957.56;;;12.29;83.47
78407;BME280;67692;51.074;-1.790;2023-05-07T03:22:13;100956.97;;;12.25;83.26
78407;BME280;67692;51.074;-1.790;2023-05-07T03:24:41;100956.38;;;12.21;83.06
78407;BME280;67692;51.074;-1.790;2023-05-07T03:27:08;100960.72;;;12.21;82.95
78407;BME280;67692;51.074;-1.790;2023-05-07T03:29:34;100972.44;;;12.27;83.03
78407;BME280;67692;51.074;-1.790;2023-05-07T03:32:01;100978.44;;;12.27;83.09
78407;BME280;67692;51.074;-1.790;2023-05-07T03:34:28;100978.44;;;12.27;83.37
78407;BME280;67692;51.074;-1.790;2023-05-07T03:36:54;100976.31;;;12.21;83.58
78407;BME280;67692;51.074;-1.790;2023-05-07T03:39:21;100978.44;;;12.27;83.88
78407;BME280;67692;51.074;-1.790;2023-05-07T03:41:49;100986.88;;;12.31;83.40
78407;BME280;67692;51.074;-1.790;2023-05-07T03:44:16;100990.19;;;12.33;83.56
78407;BME280;67692;51.074;-1.790;2023-05-07T03:46:42;100992.56;;;12.36;83.66
78407;BME280;67692;51.074;-1.790;2023-05-07T03:49:09;100990.06;;;12.34;83.43
78407;BME280;67692;51.074;-1.790;2023-05-07T03:51:35;100990.91;;;12.35;83.71
78407;BME280;67692;51.074;-1.790;2023-05-07T03:54:02;101000.34;;;12.36;83.94
78407;BME280;67692;51.074;-1.790;2023-05-07T03:56:29;100998.25;;;12.41;83.54
78407;BME280;67692;51.074;-1.790;2023-05-07T03:58:57;100993.06;;;12.41;83.25
78407;BME280;67692;51.074;-1.790;2023-05-07T04:01:24;100988.56;;;12.43;83.00
78407;BME280;67692;51.074;-1.790;2023-05-07T04:03:51;100991.28;;;12.41;82.68
78407;BME280;67692;51.074;-1.790;2023-05-07T04:06:17;100979.34;;;12.39;82.28
78407;BME280;67692;51.074;-1.790;2023-05-07T04:08:44;100981.47;;;12.34;82.62
78407;BME280;67692;51.074;-1.790;2023-05-07T04:11:10;100988.31;;;12.35;83.20
78407;BME280;67692;51.074;-1.790;2023-05-07T04:13:37;100998.47;;;12.38;83.07
78407;BME280;67692;51.074;-1.790;2023-05-07T04:16:06;100993.28;;;12.38;83.22
78407;BME280;67692;51.074;-1.790;2023-05-07T04:18:32;100999.78;;;12.43;83.22
78407;BME280;67692;51.074;-1.790;2023-05-07T04:20:59;101003.31;;;12.42;82.88
78407;BME280;67692;51.074;-1.790;2023-05-07T04:23:25;100999.72;;;12.45;82.60
78407;BME280;67692;51.074;-1.790;2023-05-07T04:25:52;101003.72;;;12.49;82.66
78407;BME280;67692;51.074;-1.790;2023-05-07T04:28:19;101008.22;;;12.47;82.16
78407;BME280;67692;51.074;-1.790;2023-05-07T04:30:46;101000.84;;;12.41;81.98
78407;BME280;67692;51.074;-1.790;2023-05-07T04:33:15;101002.50;;;12.42;82.37
78407;BME280;67692;51.074;-1.790;2023-05-07T04:35:42;101010.19;;;12.43;82.10
78407;BME280;67692;51.074;-1.790;2023-05-07T04:38:08;101006.25;;;12.38;82.30
78407;BME280;67692;51.074;-1.790;2023-05-07T04:40:35;101008.06;;;12.25;82.91
78407;BME280;67692;51.074;-1.790;2023-05-07T04:43:02;101007.66;;;12.31;82.81
78407;BME280;67692;51.074;-1.790;2023-05-07T04:45:30;101010.97;;;12.33;83.18
78407;BME280;67692;51.074;-1.790;2023-05-07T04:47:56;101003.94;;;12.22;82.67
78407;BME280;67692;51.074;-1.790;2023-05-07T04:50:24;101013.16;;;12.26;83.57
78407;BME280;67692;51.074;-1.790;2023-05-07T04:52:51;101011.13;;;12.18;82.76
78407;BME280;67692;51.074;-1.790;2023-05-07T04:55:17;101006.41;;;12.24;82.56
78407;BME280;67692;51.074;-1.790;2023-05-07T04:57:44;101013.47;;;12.21;83.70
78407;BME280;67692;51.074;-1.790;2023-05-07T05:00:11;101012.16;;;12.16;82.53
78407;BME280;67692;51.074;-1.790;2023-05-07T05:02:39;101009.47;;;12.05;83.10
78407;BME280;67692;51.074;-1.790;2023-05-07T05:05:07;101019.25;;;12.01;83.52
78407;BME280;67692;51.074;-1.790;2023-05-07T05:07:35;101019.03;;;12.04;83.36
78407;BME280;67692;51.074;-1.790;2023-05-07T05:10:02;101020.09;;;11.89;83.67
78407;BME280;67692;51.074;-1.790;2023-05-07T05:12:29;101035.34;;;11.94;84.21
78407;BME280;67692;51.074;-1.790;2023-05-07T05:14:55;101035.66;;;12.02;83.79
78407;BME280;67692;51.074;-1.790;2023-05-07T05:17:22;101040.94;;;12.00;83.25
78407;BME280;67692;51.074;-1.790;2023-05-07T05:19:49;101036.66;;;11.99;83.88
78407;BME280;67692;51.074;-1.790;2023-05-07T05:22:16;101046.34;;;11.97;83.84
78407;BME280;67692;51.074;-1.790;2023-05-07T05:24:44;101043.31;;;11.78;84.14
78407;BME280;67692;51.074;-1.790;2023-05-07T05:27:10;101055.06;;;11.83;84.33
78407;BME280;67692;51.074;-1.790;2023-05-07T05:29:37;101053.41;;;11.95;84.15
78407;BME280;67692;51.074;-1.790;2023-05-07T05:32:04;101065.03;;;11.89;84.62
78407;BME280;67692;51.074;-1.790;2023-05-07T05:34:30;101064.50;;;11.97;84.58
78407;BME280;67692;51.074;-1.790;2023-05-07T05:36:58;101068.75;;;12.11;85.21
78407;BME280;67692;51.074;-1.790;2023-05-07T05:39:25;101066.88;;;12.13;84.12
78407;BME280;67692;51.074;-1.790;2023-05-07T05:41:53;101068.13;;;12.20;83.36
78407;BME280;67692;51.074;-1.790;2023-05-07T05:44:19;101066.84;;;12.26;83.38
78407;BME280;67692;51.074;-1.790;2023-05-07T05:46:46;101068.72;;;12.24;83.52
78407;BME280;67692;51.074;-1.790;2023-05-07T05:49:14;101072.25;;;12.23;82.88
78407;BME280;67692;51.074;-1.790;2023-05-07T05:51:41;101069.16;;;12.17;83.41
78407;BME280;67692;51.074;-1.790;2023-05-07T05:54:08;101065.41;;;12.21;82.91
78407;BME280;67692;51.074;-1.790;2023-05-07T05:56:34;101066.25;;;12.22;83.20
78407;BME280;67692;51.074;-1.790;2023-05-07T05:59:03;101076.50;;;12.24;82.98
78407;BME280;67692;51.074;-1.790;2023-05-07T06:01:29;101080.97;;;12.34;83.45
78407;BME280;67692;51.074;-1.790;2023-05-07T06:03:56;101078.41;;;12.21;82.88
78407;BME280;67692;51.074;-1.790;2023-05-07T06:06:22;101073.63;;;12.15;83.46
78407;BME280;67692;51.074;-1.790;2023-05-07T06:08:49;101074.53;;;12.14;83.07
78407;BME280;67692;51.074;-1.790;2023-05-07T06:11:16;101080.78;;;12.25;83.00
78407;BME280;67692;51.074;-1.790;2023-05-07T06:13:42;101076.00;;;12.31;83.04
78407;BME280;67692;51.074;-1.790;2023-05-07T06:16:10;101073.28;;;12.33;82.90
78407;BME280;67692;51.074;-1.790;2023-05-07T06:18:37;101075.66;;;12.36;82.61
78407;BME280;67692;51.074;-1.790;2023-05-07T06:21:03;101072.25;;;12.35;82.26
78407;BME280;67692;51.074;-1.790;2023-05-07T06:23:30;101072.34;;;12.34;82.97
78407;BME280;67692;51.074;-1.790;2023-05-07T06:25:57;101078.59;;;12.31;82.79
78407;BME280;67692;51.074;-1.790;2023-05-07T06:28:23;101081.44;;;12.15;83.79
78407;BME280;67692;51.074;-1.790;2023-05-07T06:30:50;101087.03;;;12.09;84.40
78407;BME280;67692;51.074;-1.790;2023-05-07T06:33:18;101100.72;;;12.11;84.38
78407;BME280;67692;51.074;-1.790;2023-05-07T06:35:45;101106.94;;;12.21;84.55
78407;BME280;67692;51.074;-1.790;2023-05-07T06:38:11;101114.13;;;12.31;83.49
78407;BME280;67692;51.074;-1.790;2023-05-07T06:40:38;101120.84;;;12.33;83.17
78407;BME280;67692;51.074;-1.790;2023-05-07T06:43:05;101125.44;;;12.30;82.96
78407;BME280;67692;51.074;-1.790;2023-05-07T06:45:31;101123.25;;;12.24;83.97
78407;BME280;67692;51.074;-1.790;2023-05-07T06:47:58;101123.97;;;12.26;82.95
78407;BME280;67692;51.074;-1.790;2023-05-07T06:50:26;101127.63;;;12.23;83.10
78407;BME280;67692;51.074;-1.790;2023-05-07T06:52:52;101125.84;;;12.11;82.77
78407;BME280;67692;51.074;-1.790;2023-05-07T06:55:19;101127.72;;;12.09;83.15
78407;BME280;67692;51.074;-1.790;2023-05-07T06:57:46;101130.75;;;12.15;82.63
78407;BME280;67692;51.074;-1.790;2023-05-07T07:00:13;101126.06;;;12.20;82.12
78407;BME280;67692;51.074;-1.790;2023-05-07T07:02:40;101130.66;;;12.17;82.45
78407;BME280;67692;51.074;-1.790;2023-05-07T07:05:07;101130.41;;;12.33;83.03
78407;BME280;67692;51.074;-1.790;2023-05-07T07:07:35;101128.09;;;12.41;81.59
78407;BME280;67692;51.074;-1.790;2023-05-07T07:10:02;101127.38;;;12.39;81.53
78407;BME280;67692;51.074;-1.790;2023-05-07T07:12:30;101111.53;;;12.31;81.02
78407;BME280;67692;51.074;-1.790;2023-05-07T07:14:56;101120.94;;;12.44;82.37
78407;BME280;67692;51.074;-1.790;2023-05-07T07:17:23;101129.03;;;12.52;81.79
78407;BME280;67692;51.074;-1.790;2023-05-07T07:19:49;101124.03;;;12.49;81.10
78407;BME280;67692;51.074;-1.790;2023-05-07T07:22:16;101126.75;;;12.48;81.63
78407;BME280;67692;51.074;-1.790;2023-05-07T07:24:44;101134.81;;;12.56;81.84
78407;BME280;67692;51.074;-1.790;2023-05-07T07:27:11;101138.34;;;12.68;80.42
78407;BME280;67692;51.074;-1.790;2023-05-07T07:29:37;101149.03;;;12.76;80.79
78407;BME280;67692;51.074;-1.790;2023-05-07T07:32:04;101147.03;;;12.79;80.43
78407;BME280;67692;51.074;-1.790;2023-05-07T07:34:31;101161.13;;;12.64;80.40
78407;BME280;67692;51.074;-1.790;2023-05-07T07:36:57;101152.88;;;12.70;80.40
78407;BME280;67692;51.074;-1.790;2023-05-07T07:39:30;101161.13;;;12.64;80.76
78407;BME280;67692;51.074;-1.790;2023-05-07T07:41:58;101167.16;;;12.52;81.78
78407;BME280;67692;51.074;-1.790;2023-05-07T07:44:25;101173.28;;;12.64;80.66
78407;BME280;67692;51.074;-1.790;2023-05-07T07:46:51;101178.13;;;12.68;80.89
78407;BME280;67692;51.074;-1.790;2023-05-07T07:49:18;101170.94;;;12.72;80.07
78407;BME280;67692;51.074;-1.790;2023-05-07T07:51:45;101172.72;;;12.71;80.45
78407;BME280;67692;51.074;-1.790;2023-05-07T07:54:11;101167.75;;;12.68;80.81
78407;BME280;67692;51.074;-1.790;2023-05-07T07:56:38;101167.34;;;12.62;81.09
78407;BME280;67692;51.074;-1.790;2023-05-07T07:59:06;101173.16;;;12.65;81.39
78407;BME280;67692;51.074;-1.790;2023-05-07T08:01:32;101180.34;;;12.62;81.28
78407;BME280;67692;51.074;-1.790;2023-05-07T08:03:59;101173.47;;;12.73;81.15
78407;BME280;67692;51.074;-1.790;2023-05-07T08:06:28;101174.47;;;12.84;80.75
78407;BME280;67692;51.074;-1.790;2023-05-07T08:08:55;101180.19;;;12.89;80.60
78407;BME280;67692;51.074;-1.790;2023-05-07T08:11:21;101183.63;;;12.89;80.77
78407;BME280;67692;51.074;-1.790;2023-05-07T08:13:48;101184.34;;;12.91;80.47
78407;BME280;67692;51.074;-1.790;2023-05-07T08:16:17;101196.06;;;12.97;80.59
78407;BME280;67692;51.074;-1.790;2023-05-07T08:18:43;101193.03;;;13.03;80.43
78407;BME280;67692;51.074;-1.790;2023-05-07T08:21:10;101198.16;;;13.16;80.09
78407;BME280;67692;51.074;-1.790;2023-05-07T08:23:37;101196.00;;;13.22;79.61
78407;BME280;67692;51.074;-1.790;2023-05-07T08:26:03;101197.31;;;13.28;79.38
78407;BME280;67692;51.074;-1.790;2023-05-07T08:28:30;101202.25;;;13.44;79.95
78407;BME280;67692;51.074;-1.790;2023-05-07T08:30:56;101202.88;;;13.47;78.71
78407;BME280;67692;51.074;-1.790;2023-05-07T08:33:27;101202.25;;;13.44;78.55
78407;BME280;67692;51.074;-1.790;2023-05-07T08:35:53;101210.50;;;13.37;80.08
78407;BME280;67692;51.074;-1.790;2023-05-07T08:38:20;101201.34;;;13.56;78.53
78407;BME280;67692;51.074;-1.790;2023-05-07T08:40:47;101198.81;;;13.67;77.66
78407;BME280;67692;51.074;-1.790;2023-05-07T08:43:14;101203.63;;;13.60;78.46
78407;BME280;67692;51.074;-1.790;2023-05-07T08:45:41;101200.94;;;13.62;78.29
78407;BME280;67692;51.074;-1.790;2023-05-07T08:48:09;101213.47;;;13.68;77.59
78407;BME280;67692;51.074;-1.790;2023-05-07T08:50:42;101207.16;;;13.59;77.63
78407;BME280;67692;51.074;-1.790;2023-05-07T08:53:08;101207.69;;;13.40;78.75
78407;BME280;67692;51.074;-1.790;2023-05-07T08:55:35;101204.66;;;13.47;78.32
78407;BME280;67692;51.074;-1.790;2023-05-07T08:58:02;101210.34;;;13.52;78.24
78407;BME280;67692;51.074;-1.790;2023-05-07T09:00:28;101217.25;;;13.64;78.38
78407;BME280;67692;51.074;-1.790;2023-05-07T09:02:55;101212.75;;;13.66;77.30
78407;BME280;67692;51.074;-1.790;2023-05-07T09:05:22;101215.78;;;13.84;77.59
78407;BME280;67692;51.074;-1.790;2023-05-07T09:07:50;101214.88;;;13.96;77.54
78407;BME280;67692;51.074;-1.790;2023-05-07T09:10:17;101217.16;;;14.12;77.37
78407;BME280;67692;51.074;-1.790;2023-05-07T09:12:43;101214.69;;;14.21;76.24
78407;BME280;67692;51.074;-1.790;2023-05-07T09:15:12;101215.97;;;14.27;76.66
78407;BME280;67692;51.074;-1.790;2023-05-07T09:17:39;101218.72;;;14.37;76.70
78407;BME280;67692;51.074;-1.790;2023-05-07T09:20:07;101220.66;;;14.46;77.03
78407;BME280;67692;51.074;-1.790;2023-05-07T09:22:35;101224.91;;;14.58;76.90
78407;BME280;67692;51.074;-1.790;2023-05-07T09:25:05;101232.53;;;14.61;76.27
78407;BME280;67692;51.074;-1.790;2023-05-07T09:27:33;101230.50;;;14.53;76.31
78407;BME280;67692;51.074;-1.790;2023-05-07T09:30:03;101238.56;;;14.62;76.28
78407;BME280;67692;51.074;-1.790;2023-05-07T09:32:29;101249.09;;;14.60;75.25
78407;BME280;67692;51.074;-1.790;2023-05-07T09:34:56;101245.44;;;14.63;74.98
78407;BME280;67692;51.074;-1.790;2023-05-07T09:37:25;101251.59;;;14.62;75.30
78407;BME280;67692;51.074;-1.790;2023-05-07T09:39:52;101260.13;;;14.64;75.33
78407;BME280;67692;51.074;-1.790;2023-05-07T09:42:24;101262.59;;;14.54;73.60
78407;BME280;67692;51.074;-1.790;2023-05-07T09:44:52;101257.84;;;14.59;74.35
78407;BME280;67692;51.074;-1.790;2023-05-07T09:47:19;101259.06;;;14.66;75.64
78407;BME280;67692;51.074;-1.790;2023-05-07T09:49:48;101261.78;;;14.65;75.11
78407;BME280;67692;51.074;-1.790;2023-05-07T09:52:14;101267.22;;;14.73;75.01
78407;BME280;67692;51.074;-1.790;2023-05-07T09:54:43;101260.59;;;14.80;75.38
78407;BME280;67692;51.074;-1.790;2023-05-07T09:57:11;101256.78;;;14.95;76.01
78407;BME280;67692;51.074;-1.790;2023-05-07T09:59:42;101255.47;;;15.01;73.34
78407;BME280;67692;51.074;-1.790;2023-05-07T10:02:09;101262.22;;;15.14;74.76
78407;BME280;67692;51.074;-1.790;2023-05-07T10:04:36;101267.56;;;15.24;72.94
78407;BME280;67692;51.074;-1.790;2023-05-07T10:07:04;101262.66;;;15.31;74.23
78407;BME280;67692;51.074;-1.790;2023-05-07T10:09:31;101270.13;;;15.35;75.72
78407;BME280;67692;51.074;-1.790;2023-05-07T10:11:58;101279.47;;;15.49;74.98
78407;BME280;67692;51.074;-1.790;2023-05-07T10:14:27;101269.50;;;15.43;71.04
78407;BME280;67692;51.074;-1.790;2023-05-07T10:16:55;101278.41;;;15.40;72.06
78407;BME280;67692;51.074;-1.790;2023-05-07T10:19:23;101277.91;;;15.46;71.56
78407;BME280;67692;51.074;-1.790;2023-05-07T10:21:54;101275.09;;;15.38;71.58
78407;BME280;67692;51.074;-1.790;2023-05-07T10:24:25;101278.69;;;15.26;72.50
78407;BME280;67692;51.074;-1.790;2023-05-07T10:26:53;101268.22;;;15.37;72.09
78407;BME280;67692;51.074;-1.790;2023-05-07T10:29:28;101274.97;;;15.51;70.82
78407;BME280;67692;51.074;-1.790;2023-05-07T10:32:07;101270.69;;;15.50;72.45
78407;BME280;67692;51.074;-1.790;2023-05-07T10:34:40;101281.13;;;15.61;73.08
78407;BME280;67692;51.074;-1.790;2023-05-07T10:37:09;101286.09;;;15.64;71.83
78407;BME280;67692;51.074;-1.790;2023-05-07T10:39:36;101290.25;;;15.67;71.78
78407;BME280;67692;51.074;-1.790;2023-05-07T10:42:09;101291.50;;;15.84;73.08
78407;BME280;67692;51.074;-1.790;2023-05-07T10:44:36;101284.16;;;15.77;69.77
78407;BME280;67692;51.074;-1.790;2023-05-07T10:47:06;101286.53;;;15.81;71.04
78407;BME280;67692;51.074;-1.790;2023-05-07T10:49:34;101288.50;;;15.88;72.69
78407;BME280;67692;51.074;-1.790;2023-05-07T10:52:15;101286.94;;;15.97;73.04
78407;BME280;67692;51.074;-1.790;2023-05-07T10:54:43;101287.31;;;16.13;72.66
78407;BME280;67692;51.074;-1.790;2023-05-07T10:57:34;101286.09;;;16.17;68.82
78407;BME280;67692;51.074;-1.790;2023-05-07T11:00:02;101291.25;;;16.28;69.43
78407;BME280;67692;51.074;-1.790;2023-05-07T11:03:06;101299.75;;;16.42;68.35
78407;BME280;67692;51.074;-1.790;2023-05-07T11:05:33;101301.34;;;16.54;67.08
78407;BME280;67692;51.074;-1.790;2023-05-07T11:08:01;101306.03;;;16.60;68.93
78407;BME280;67692;51.074;-1.790;2023-05-07T11:10:49;101303.28;;;16.61;66.90
78407;BME280;67692;51.074;-1.790;2023-05-07T11:13:16;101308.66;;;16.60;66.37
78407;BME280;67692;51.074;-1.790;2023-05-07T11:15:44;101308.97;;;16.46;67.22
78407;BME280;67692;51.074;-1.790;2023-05-07T11:18:14;101312.88;;;16.51;69.40
78407;BME280;67692;51.074;-1.790;2023-05-07T11:20:45;101310.97;;;16.53;69.67
78407;BME280;67692;51.074;-1.790;2023-05-07T11:26:13;101329.44;;;16.61;68.45
78407;BME280;67692;51.074;-1.790;2023-05-07T11:28:41;101331.59;;;16.68;66.13
78407;BME280;67692;51.074;-1.790;2023-05-07T11:31:08;101322.94;;;16.56;65.54
78407;BME280;67692;51.074;-1.790;2023-05-07T11:33:38;101324.88;;;16.54;67.44
78407;BME280;67692;51.074;-1.790;2023-05-07T11:36:05;101315.88;;;16.47;64.48
78407;BME280;67692;51.074;-1.790;2023-05-07T11:38:35;101311.66;;;16.34;63.40
78407;BME280;67692;51.074;-1.790;2023-05-07T11:41:02;101316.72;;;16.26;67.07
78407;BME280;67692;51.074;-1.790;2023-05-07T11:43:30;101319.06;;;16.29;66.97
78407;BME280;67692;51.074;-1.790;2023-05-07T11:46:05;101320.22;;;16.36;66.50
78407;BME280;67692;51.074;-1.790;2023-05-07T11:48:32;101323.53;;;16.39;65.89
78407;BME280;67692;51.074;-1.790;2023-05-07T11:51:02;101320.97;;;16.27;64.84
78407;BME280;67692;51.074;-1.790;2023-05-07T11:53:36;101324.16;;;16.31;64.32
78407;BME280;67692;51.074;-1.790;2023-05-07T11:56:06;101318.56;;;16.35;67.30
78407;BME280;67692;51.074;-1.790;2023-05-07T11:58:32;101315.00;;;16.36;66.66
78407;BME280;67692;51.074;-1.790;2023-05-07T12:00:59;101324.50;;;16.38;64.85
78407;BME280;67692;51.074;-1.790;2023-05-07T12:03:26;101319.84;;;16.41;65.57
78407;BME280;67692;51.074;-1.790;2023-05-07T12:05:52;101317.97;;;16.53;66.91
78407;BME280;67692;51.074;-1.790;2023-05-07T12:08:21;101321.56;;;16.73;66.00
78407;BME280;67692;51.074;-1.790;2023-05-07T12:10:49;101324.16;;;16.93;67.20
78407;BME280;67692;51.074;-1.790;2023-05-07T12:13:16;101331.50;;;17.09;66.12
78407;BME280;67692;51.074;-1.790;2023-05-07T12:15:43;101329.19;;;17.16;65.40
78407;BME280;67692;51.074;-1.790;2023-05-07T12:18:10;101327.44;;;17.26;63.73
78407;BME280;67692;51.074;-1.790;2023-05-07T12:20:38;101325.25;;;17.01;60.77
78407;BME280;67692;51.074;-1.790;2023-05-07T12:23:05;101323.59;;;17.00;63.92
78407;BME280;67692;51.074;-1.790;2023-05-07T12:25:34;101317.94;;;16.94;61.42
78407;BME280;67692;51.074;-1.790;2023-05-07T12:28:01;101318.09;;;17.03;62.51
78407;BME280;67692;51.074;-1.790;2023-05-07T12:30:29;101318.97;;;17.13;61.68
78407;BME280;67692;51.074;-1.790;2023-05-07T12:32:55;101324.00;;;17.35;63.87
78407;BME280;67692;51.074;-1.790;2023-05-07T12:35:28;101313.28;;;17.38;63.83
78407;BME280;67692;51.074;-1.790;2023-05-07T12:37:55;101316.03;;;17.46;61.62
78407;BME280;67692;51.074;-1.790;2023-05-07T12:40:22;101322.91;;;17.47;59.36
78407;BME280;67692;51.074;-1.790;2023-05-07T12:42:53;101306.94;;;17.60;60.45
78407;BME280;67692;51.074;-1.790;2023-05-07T12:45:20;101322.88;;;17.68;62.40